Time;durP1;ratioP1;P1;durP2;ratioP2;P2;SDS_P1;SDS_P2;PMS_P1;PMS_P2;Temp;Humidity;BMP_temperature;BMP_pressure;BME280_temperature;BME280_humidity;BME280_pressure;Samples;Min_cycle;Max_cycle;Signal;HPM_P1;HPM_P2
2020/12/03 00:01:42;;;;;;;;;;;;;;;;;;;;;
2020/12/03 00:04:11;;;;;;;;;;;5.90;77.40;;;;;;4971599;28;117308;-90
2020/12/03 00:06:47;;;;;;;;;;;6.00;77.60;;;;;;4953487;28;120996;-90
2020/12/03 00:09:13;;;;;;;;;;;6.00;77.50;;;;;;4954329;28;119495;-90
2020/12/03 00:11:43;;;;;;;;;;;6.00;77.40;;;;;;4954479;28;117543;-90
2020/12/03 00:14:09;;;;;;;;;;;6.00;77.40;;;;;;4954827;28;117000;-90
2020/12/03 00:16:35;;;;;;;;;;;6.00;77.50;;;;;;4953073;28;121682;-90
2020/12/03 00:19:00;;;;;;;;;;;6.00;77.30;;;;;;4953247;28;120460;-90
2020/12/03 00:21:45;;;;;;;;;;;5.90;77.20;;;;;;4954695;28;117491;-90
2020/12/03 00:24:14;;;;;;;;;;;6.00;77.40;;;;;;4954228;28;117852;-90
2020/12/03 00:26:40;;;;;;;;;;;6.00;77.50;;;;;;4952815;28;120335;-90
2020/12/03 00:29:05;;;;;;;;;;;5.90;77.30;;;;;;4953119;28;119271;-91
2020/12/03 00:31:34;;;;;;;;;;;6.00;77.20;;;;;;4954308;28;117487;-91
2020/12/03 00:34:02;;;;;;;;;;;6.00;77.40;;;;;;4954508;28;117561;-90
2020/12/03 00:36:28;;;;;;;;;;;5.90;77.30;;;;;;4952868;28;121918;-90
2020/12/03 00:38:53;;;;;;;;;;;5.90;77.20;;;;;;4953108;28;118831;-90
2020/12/03 00:41:19;;;;;;;;;;;5.90;77.20;;;;;;4954082;28;117607;-90
2020/12/03 00:43:45;;;;;;;;;;;6.00;77.30;;;;;;4953962;28;117856;-90
2020/12/03 00:46:26;;;;;;;;;;;5.90;77.20;;;;;;4953147;28;120768;-90
2020/12/03 00:49:12;;;;;;;;;;;;;;;;;;;;;
2020/12/03 00:51:43;;;;;;;;;;;6.00;77.30;;;;;;4987290;28;117774;-90
2020/12/03 00:54:29;;;;;;;;;;;6.00;77.40;;;;;;4952036;28;117867;-90
2020/12/03 00:57:05;;;;;;;;;;;;;;;;;;;;;
2020/12/03 01:00:19;;;;;;;;;;;;;;;;;;;;;
2020/12/03 01:02:46;;;;;;;;;;;6.00;77.30;;;;;;4959613;28;117851;-90
2020/12/03 01:06:05;;;;;;;;;;;6.00;77.30;;;;;;4953143;28;117610;-90
2020/12/03 01:08:23;;;;;;;;;;;5.90;77.30;;;;;;4983039;28;117679;-90
2020/12/03 01:10:49;;;;;;;;;;;6.00;77.40;;;;;;4953694;28;118868;-90
2020/12/03 01:13:14;;;;;;;;;;;6.00;77.40;;;;;;4954827;28;117454;-90
2020/12/03 01:15:40;;;;;;;;;;;5.90;77.30;;;;;;4955123;28;117482;-90
2020/12/03 01:18:05;;;;;;;;;;;6.00;77.30;;;;;;4954275;28;120047;-90
2020/12/03 01:20:31;;;;;;;;;;;6.00;77.30;;;;;;4953824;28;119401;-90
2020/12/03 01:22:57;;;;;;;;;;;6.00;77.30;;;;;;4954546;28;117572;-90
2020/12/03 01:25:23;;;;;;;;;;;6.00;77.30;;;;;;4954302;28;117493;-90
2020/12/03 01:27:49;;;;;;;;;;;6.00;77.20;;;;;;4953056;28;120314;-90
2020/12/03 01:30:14;;;;;;;;;;;6.00;77.30;;;;;;4953071;28;120099;-90
2020/12/03 01:32:40;;;;;;;;;;;6.00;77.20;;;;;;4953911;28;117652;-90
2020/12/03 01:38:11;;;;;;;;;;;5.90;77.30;;;;;;4968806;28;117886;-90
2020/12/03 01:40:37;;;;;;;;;;;6.00;77.30;;;;;;4952477;28;119699;-90
2020/12/03 01:43:03;;;;;;;;;;;6.00;77.30;;;;;;4953353;28;117755;-90
2020/12/03 01:45:43;;;;;;;;;;;6.00;77.40;;;;;;4953190;28;117873;-90
2020/12/03 01:48:21;;;;;;;;;;;6.00;77.30;;;;;;4968326;28;120141;-90
2020/12/03 01:50:46;;;;;;;;;;;6.00;77.30;;;;;;4952042;28;120573;-90
2020/12/03 01:53:12;;;;;;;;;;;5.90;77.20;;;;;;4952925;28;117475;-90
2020/12/03 01:55:38;;;;;;;;;;;5.90;77.20;;;;;;4952095;28;117914;-90
2020/12/03 01:58:03;;;;;;;;;;;6.00;77.30;;;;;;4952071;28;120133;-90
2020/12/03 02:00:29;;;;;;;;;;;5.90;77.10;;;;;;4951933;28;118853;-90
2020/12/03 02:02:54;;;;;;;;;;;5.90;77.20;;;;;;4953072;28;117564;-91
2020/12/03 02:05:21;;;;;;;;;;;6.00;77.30;;;;;;4952720;28;117630;-91
2020/12/03 02:07:47;;;;;;;;;;;5.90;77.10;;;;;;4951837;28;120824;-90
2020/12/03 02:10:12;;;;;;;;;;;5.90;77.40;;;;;;4951742;28;119369;-90
2020/12/03 02:12:38;;;;;;;;;;;5.90;77.20;;;;;;4952957;28;117586;-90
2020/12/03 02:15:04;;;;;;;;;;;5.90;77.20;;;;;;4952955;28;117813;-90
2020/12/03 02:17:30;;;;;;;;;;;5.90;77.10;;;;;;4952102;28;120150;-90
2020/12/03 02:19:59;;;;;;;;;;;5.90;77.10;;;;;;4952103;28;119441;-91
2020/12/03 02:22:24;;;;;;;;;;;6.00;77.40;;;;;;4952731;28;117533;-91
2020/12/03 02:24:50;;;;;;;;;;;5.90;77.20;;;;;;4953036;28;117888;-91
2020/12/03 02:27:16;;;;;;;;;;;5.90;77.10;;;;;;4951685;28;120203;-91
2020/12/03 02:29:42;;;;;;;;;;;6.00;77.30;;;;;;4951978;28;120374;-91
2020/12/03 02:32:07;;;;;;;;;;;5.90;77.80;;;;;;4952619;28;117567;-90
2020/12/03 02:34:33;;;;;;;;;;;6.00;77.20;;;;;;4952430;28;117500;-90
2020/12/03 02:36:59;;;;;;;;;;;5.90;77.10;;;;;;4968048;28;118267;-90
2020/12/03 02:39:25;;;;;;;;;;;5.90;77.10;;;;;;4951460;28;120010;-90
2020/12/03 02:41:50;;;;;;;;;;;5.90;77.10;;;;;;4952412;28;117431;-91
2020/12/03 02:44:16;;;;;;;;;;;5.90;77.20;;;;;;4969419;28;117818;-90
2020/12/03 02:46:42;;;;;;;;;;;5.90;77.10;;;;;;4951328;28;120242;-90
2020/12/03 02:49:07;;;;;;;;;;;5.90;77.10;;;;;;4951240;28;119261;-91
2020/12/03 02:51:33;;;;;;;;;;;5.90;77.10;;;;;;4952496;28;117413;-91
2020/12/03 02:53:58;;;;;;;;;;;5.90;77.10;;;;;;4952580;28;117874;-91
2020/12/03 02:56:24;;;;;;;;;;;5.90;77.10;;;;;;4951016;28;120045;-90
2020/12/03 02:58:49;;;;;;;;;;;6.00;77.20;;;;;;4950873;28;120016;-90
2020/12/03 03:01:15;;;;;;;;;;;5.90;77.10;;;;;;4952385;28;117657;-90
2020/12/03 03:03:40;;;;;;;;;;;6.00;77.20;;;;;;4952410;28;117516;-90
2020/12/03 03:06:06;;;;;;;;;;;6.00;77.10;;;;;;4951431;28;121022;-90
2020/12/03 03:08:31;;;;;;;;;;;6.00;77.10;;;;;;4954573;28;120287;-90
2020/12/03 03:10:57;;;;;;;;;;;5.90;77.10;;;;;;4955641;28;117533;-90
2020/12/03 03:13:22;;;;;;;;;;;5.90;77.10;;;;;;4955756;28;117921;-90
2020/12/03 03:15:48;;;;;;;;;;;5.90;77.10;;;;;;4954626;28;121053;-90
2020/12/03 03:18:13;;;;;;;;;;;5.90;77.10;;;;;;4954743;28;120032;-91
2020/12/03 03:20:39;;;;;;;;;;;5.90;77.10;;;;;;4955887;28;117554;-90
2020/12/03 03:23:05;;;;;;;;;;;6.00;77.20;;;;;;4955778;28;117833;-90
2020/12/03 03:25:30;;;;;;;;;;;6.00;77.20;;;;;;4954436;28;121069;-90
2020/12/03 03:27:56;;;;;;;;;;;6.00;77.20;;;;;;4954794;28;119858;-90
2020/12/03 03:30:21;;;;;;;;;;;6.00;77.10;;;;;;4955830;28;117576;-90
2020/12/03 03:32:47;;;;;;;;;;;5.90;77.00;;;;;;4956106;28;117266;-91
2020/12/03 03:35:14;;;;;;;;;;;6.00;77.20;;;;;;4954870;28;121084;-90
2020/12/03 03:37:40;;;;;;;;;;;6.00;77.60;;;;;;4954824;28;119328;-90
2020/12/03 03:40:05;;;;;;;;;;;5.90;77.20;;;;;;4956107;28;117719;-90
2020/12/03 03:42:31;;;;;;;;;;;5.90;77.20;;;;;;4956516;28;117445;-90
2020/12/03 03:44:56;;;;;;;;;;;5.90;77.10;;;;;;4955314;28;121099;-90
2020/12/03 03:47:22;;;;;;;;;;;5.90;77.20;;;;;;4955059;28;119569;-90
2020/12/03 03:49:47;;;;;;;;;;;5.90;77.20;;;;;;4955957;28;117502;-91
2020/12/03 03:52:13;;;;;;;;;;;5.90;77.10;;;;;;4956569;28;117839;-90
2020/12/03 03:54:38;;;;;;;;;;;6.00;77.10;;;;;;4954290;28;120149;-90
2020/12/03 03:57:04;;;;;;;;;;;5.90;77.20;;;;;;4954496;28;119229;-91
2020/12/03 03:59:30;;;;;;;;;;;5.90;77.20;;;;;;4955530;28;117288;-90
2020/12/03 04:01:55;;;;;;;;;;;5.90;77.20;;;;;;4955620;28;117836;-90
2020/12/03 04:04:21;;;;;;;;;;;5.90;77.20;;;;;;4953820;28;121320;-90
2020/12/03 04:06:46;;;;;;;;;;;5.90;77.10;;;;;;4954128;28;119143;-90
2020/12/03 04:09:12;;;;;;;;;;;5.90;77.20;;;;;;4954830;28;117399;-90
2020/12/03 04:11:37;;;;;;;;;;;5.90;77.20;;;;;;4954903;28;117258;-90
2020/12/03 04:14:03;;;;;;;;;;;6.00;77.20;;;;;;4953671;28;121719;-90
2020/12/03 04:16:28;;;;;;;;;;;5.90;77.20;;;;;;4953381;28;119241;-91
2020/12/03 04:18:54;;;;;;;;;;;5.90;77.10;;;;;;4953855;28;117906;-90
2020/12/03 04:21:19;;;;;;;;;;;5.90;77.10;;;;;;4954812;28;117575;-90
2020/12/03 04:23:45;;;;;;;;;;;6.00;77.20;;;;;;4953451;28;120358;-90
2020/12/03 04:26:13;;;;;;;;;;;5.90;77.20;;;;;;4952202;28;119307;-90
2020/12/03 04:28:39;;;;;;;;;;;5.90;77.30;;;;;;4953551;28;117545;-90
2020/12/03 04:31:05;;;;;;;;;;;5.90;77.20;;;;;;4953504;28;117745;-90
2020/12/03 04:33:31;;;;;;;;;;;5.90;77.10;;;;;;4952227;28;120070;-90
2020/12/03 04:35:56;;;;;;;;;;;5.90;77.10;;;;;;4951517;28;119407;-90
2020/12/03 04:38:22;;;;;;;;;;;5.90;77.20;;;;;;4952838;28;117563;-90
2020/12/03 04:40:47;;;;;;;;;;;5.90;77.10;;;;;;4953432;28;117324;-90
2020/12/03 04:43:30;;;;;;;;;;;5.90;77.10;;;;;;4952387;28;120216;-90
2020/12/03 04:45:57;;;;;;;;;;;5.90;77.10;;;;;;4951949;28;119234;-90
2020/12/03 04:48:42;;;;;;;;;;;5.90;77.00;;;;;;4952689;28;117606;-90
2020/12/03 04:51:26;;;;;;;;;;;5.90;77.00;;;;;;4969780;28;117811;-90
2020/12/03 04:53:54;;;;;;;;;;;5.90;77.10;;;;;;4968331;28;121119;-90
2020/12/03 04:56:39;;;;;;;;;;;5.90;77.10;;;;;;4952183;28;120269;-90
2020/12/03 04:59:27;;;;;;;;;;;;;;;;;;;;;
2020/12/03 05:02:33;;;;;;;;;;;;;;;;;;;;;
2020/12/03 05:05:17;;;;;;;;;;;5.90;77.10;;;;;;4984710;28;148116;-89
2020/12/03 05:07:55;;;;;;;;;;;;;;;;;;;;;
2020/12/03 05:10:53;;;;;;;;;;;5.90;77.00;;;;;;4969690;28;121494;-89
2020/12/03 05:13:23;;;;;;;;;;;5.90;77.10;;;;;;4936719;28;117676;-89
2020/12/03 05:15:50;;;;;;;;;;;5.90;77.10;;;;;;4951612;28;121355;-89
2020/12/03 05:18:25;;;;;;;;;;;5.90;77.10;;;;;;4951474;28;119482;-89
2020/12/03 05:21:12;;;;;;;;;;;5.90;77.00;;;;;;4952624;28;117326;-89
2020/12/03 05:23:40;;;;;;;;;;;5.90;77.00;;;;;;4955077;28;117776;-89
2020/12/03 05:26:18;;;;;;;;;;;5.90;77.00;;;;;;4950963;28;120547;-90
2020/12/03 05:28:57;;;;;;;;;;;5.90;77.00;;;;;;4950744;28;118852;-89
2020/12/03 05:31:25;;;;;;;;;;;5.90;77.10;;;;;;4951693;28;117360;-89
2020/12/03 05:33:54;;;;;;;;;;;5.90;77.00;;;;;;4968728;28;117467;-89
2020/12/03 05:36:35;;;;;;;;;;;5.90;77.10;;;;;;4951687;28;121110;-89
2020/12/03 05:39:12;;;;;;;;;;;;;;;;;;;;;
2020/12/03 05:41:55;;;;;;;;;;;5.90;77.00;;;;;;4968254;28;120699;-89
2020/12/03 05:44:26;;;;;;;;;;;5.90;77.00;;;;;;4953368;28;116930;-89
2020/12/03 05:47:08;;;;;;;;;;;5.90;77.10;;;;;;4966374;28;121944;-89
2020/12/03 05:49:39;;;;;;;;;;;5.90;77.00;;;;;;4967813;28;119641;-89
2020/12/03 05:52:31;;;;;;;;;;;;;;;;;;;;;
2020/12/03 05:55:04;;;;;;;;;;;5.90;77.10;;;;;;4985614;28;117221;-88
2020/12/03 05:57:31;;;;;;;;;;;5.90;77.10;;;;;;4951426;28;121149;-88
2020/12/03 06:00:29;;;;;;;;;;;5.90;77.10;;;;;;4952019;28;119210;-88
2020/12/03 06:03:19;;;;;;;;;;;5.90;77.10;;;;;;4936881;28;117540;-90
2020/12/03 06:09:16;;;;;;;;;;;5.90;77.00;;;;;;4985923;28;117993;-90
2020/12/03 06:11:53;;;;;;;;;;;5.90;77.10;;;;;;4968337;28;120601;-90
2020/12/03 06:15:04;;;;;;;;;;;5.90;77.10;;;;;;4968761;28;117939;-89
2020/12/03 06:17:51;;;;;;;;;;;5.90;77.10;;;;;;4969468;28;118109;-90
2020/12/03 06:20:25;;;;;;;;;;;5.90;77.10;;;;;;4967647;28;121587;-88
2020/12/03 06:22:52;;;;;;;;;;;5.90;77.10;;;;;;4950832;28;120362;-88
2020/12/03 06:25:23;;;;;;;;;;;5.90;77.10;;;;;;4968215;28;117544;-88
2020/12/03 06:28:02;;;;;;;;;;;5.90;77.10;;;;;;4952584;28;117813;-88
2020/12/03 06:30:40;;;;;;;;;;;5.90;77.10;;;;;;4951410;28;120228;-88
2020/12/03 06:33:24;;;;;;;;;;;5.90;77.10;;;;;;4951229;28;119552;-88
2020/12/03 06:35:55;;;;;;;;;;;5.90;77.00;;;;;;4967690;28;117782;-88
2020/12/03 06:38:39;;;;;;;;;;;5.90;77.00;;;;;;4951798;28;117714;-88
2020/12/03 06:41:05;;;;;;;;;;;5.90;77.00;;;;;;4966373;28;121707;-88
2020/12/03 06:43:35;;;;;;;;;;;5.90;77.00;;;;;;4966802;28;120460;-90
2020/12/03 06:49:22;;;;;;;;;;;5.90;77.10;;;;;;4981835;28;117408;-90
2020/12/03 07:07:52;;;;;;;;;;;;;;;;;;;;;
2020/12/03 07:10:53;;;;;;;;;;;;;;;;;;;;;
2020/12/03 07:13:43;;;;;;;;;;;5.90;77.10;;;;;;4983172;28;117676;-90
2020/12/03 07:16:21;;;;;;;;;;;5.90;77.00;;;;;;4966067;28;120200;-90
2020/12/03 07:19:05;;;;;;;;;;;5.90;76.90;;;;;;4965506;28;119629;-90
2020/12/03 07:21:43;;;;;;;;;;;5.90;77.00;;;;;;4967202;28;117336;-90
2020/12/03 07:24:21;;;;;;;;;;;5.90;77.00;;;;;;4967478;28;117351;-90
2020/12/03 07:26:49;;;;;;;;;;;5.90;76.90;;;;;;4966001;28;120013;-90
2020/12/03 07:29:38;;;;;;;;;;;5.90;76.80;;;;;;4949944;28;119555;-89
2020/12/03 07:32:03;;;;;;;;;;;5.90;76.80;;;;;;4958395;28;117355;-90
2020/12/03 07:34:45;;;;;;;;;;;5.90;76.80;;;;;;4950979;28;117549;-90
2020/12/03 07:37:10;;;;;;;;;;;5.90;76.70;;;;;;4949912;28;120988;-89
2020/12/03 07:39:36;;;;;;;;;;;5.90;76.70;;;;;;4966223;28;118945;-90
2020/12/03 07:42:03;;;;;;;;;;;5.90;76.70;;;;;;4950770;28;117532;-90
2020/12/03 07:44:31;;;;;;;;;;;5.90;76.70;;;;;;4950313;28;117305;-89
2020/12/03 07:47:15;;;;;;;;;;;5.90;76.60;;;;;;4949404;28;121299;-90
2020/12/03 07:49:42;;;;;;;;;;;5.90;76.60;;;;;;4965964;28;120581;-89
2020/12/03 07:52:17;;;;;;;;;;;5.90;76.60;;;;;;4950649;28;117559;-89
2020/12/03 07:54:42;;;;;;;;;;;5.90;76.50;;;;;;4969492;28;117936;-90
2020/12/03 07:57:12;;;;;;;;;;;5.90;76.50;;;;;;4952668;28;120231;-90
2020/12/03 07:59:38;;;;;;;;;;;5.90;76.50;;;;;;4952740;28;120835;-90
2020/12/03 08:02:04;;;;;;;;;;;5.90;76.40;;;;;;4953895;28;117475;-89
2020/12/03 08:04:34;;;;;;;;;;;5.90;76.50;;;;;;4954011;28;117993;-89
2020/12/03 08:07:02;;;;;;;;;;;5.90;76.50;;;;;;4952674;28;120210;-89
2020/12/03 08:09:37;;;;;;;;;;;5.90;76.50;;;;;;4968585;28;119249;-90
2020/12/03 08:12:04;;;;;;;;;;;5.90;76.40;;;;;;4969855;28;117594;-90
2020/12/03 08:14:46;;;;;;;;;;;5.90;76.40;;;;;;4970283;28;117786;-90
2020/12/03 08:17:21;;;;;;;;;;;5.90;76.50;;;;;;4952666;28;120272;-90
2020/12/03 08:19:47;;;;;;;;;;;5.90;76.40;;;;;;4969153;28;120861;-90
2020/12/03 08:22:29;;;;;;;;;;;5.90;76.50;;;;;;4953781;28;117916;-90
2020/12/03 08:25:04;;;;;;;;;;;5.90;76.50;;;;;;4954408;28;117876;-90
2020/12/03 08:27:30;;;;;;;;;;;5.90;76.40;;;;;;4953343;28;120238;-90
2020/12/03 08:29:55;;;;;;;;;;;5.90;76.40;;;;;;4952900;28;119293;-90
2020/12/03 08:32:20;;;;;;;;;;;5.90;76.40;;;;;;4970178;28;117560;-89
2020/12/03 08:34:46;;;;;;;;;;;5.90;76.30;;;;;;4970419;28;118172;-90
2020/12/03 08:37:15;;;;;;;;;;;5.90;76.40;;;;;;4953693;28;121248;-90
2020/12/03 08:39:46;;;;;;;;;;;5.90;76.40;;;;;;4954563;28;119355;-90
2020/12/03 08:42:11;;;;;;;;;;;5.90;76.40;;;;;;4955103;28;117395;-89
2020/12/03 08:44:37;;;;;;;;;;;5.90;76.40;;;;;;4954370;28;117389;-89
2020/12/03 08:47:09;;;;;;;;;;;5.90;76.40;;;;;;4953397;28;119700;-90
2020/12/03 08:49:39;;;;;;;;;;;5.90;76.30;;;;;;4953490;28;120396;-90
2020/12/03 08:52:05;;;;;;;;;;;5.90;76.30;;;;;;4954292;28;117492;-90
2020/12/03 08:54:31;;;;;;;;;;;5.90;76.30;;;;;;4954315;28;117619;-90
2020/12/03 08:56:57;;;;;;;;;;;5.90;76.30;;;;;;4969283;28;117684;-89
2020/12/03 08:59:43;;;;;;;;;;;5.90;76.30;;;;;;4952100;28;119278;-90
2020/12/03 09:02:10;;;;;;;;;;;5.90;76.20;;;;;;4968920;28;117621;-89
2020/12/03 09:04:36;;;;;;;;;;;5.90;76.20;;;;;;4953147;28;117401;-90
2020/12/03 09:07:02;;;;;;;;;;;5.90;76.30;;;;;;4952587;28;121231;-90
2020/12/03 09:09:28;;;;;;;;;;;5.90;76.20;;;;;;4952065;28;120481;-90
2020/12/03 09:11:53;;;;;;;;;;;5.90;76.30;;;;;;4952765;28;117319;-89
2020/12/03 09:14:19;;;;;;;;;;;5.90;76.20;;;;;;4953236;28;116832;-89
2020/12/03 09:16:57;;;;;;;;;;;5.90;76.20;;;;;;4951599;28;121323;-89
2020/12/03 09:19:23;;;;;;;;;;;5.90;76.20;;;;;;4951748;28;120271;-90
2020/12/03 09:21:50;;;;;;;;;;;5.90;76.20;;;;;;4952474;28;117686;-90
2020/12/03 09:24:15;;;;;;;;;;;5.90;76.20;;;;;;4952324;28;117921;-90
2020/12/03 09:26:41;;;;;;;;;;;5.90;76.20;;;;;;4951217;28;120215;-90
2020/12/03 09:29:06;;;;;;;;;;;5.90;76.10;;;;;;4951860;28;119477;-89
2020/12/03 09:31:33;;;;;;;;;;;5.90;76.10;;;;;;4952191;28;117194;-90
2020/12/03 09:33:59;;;;;;;;;;;5.90;76.10;;;;;;4952871;28;117211;-90
2020/12/03 09:36:24;;;;;;;;;;;5.90;76.10;;;;;;4951184;28;120925;-90
2020/12/03 09:38:50;;;;;;;;;;;5.90;76.10;;;;;;4951058;28;120121;-90
2020/12/03 09:41:20;;;;;;;;;;;5.90;76.20;;;;;;4952437;28;117571;-89
2020/12/03 09:43:47;;;;;;;;;;;5.90;76.10;;;;;;4952423;28;117328;-89
2020/12/03 09:46:14;;;;;;;;;;;5.90;76.20;;;;;;4951119;28;121837;-90
2020/12/03 09:48:40;;;;;;;;;;;5.90;76.20;;;;;;4950820;28;119643;-90
2020/12/03 09:51:06;;;;;;;;;;;5.90;76.10;;;;;;4952112;28;117461;-89
2020/12/03 09:53:31;;;;;;;;;;;5.90;76.20;;;;;;4952234;28;117789;-90
2020/12/03 09:55:59;;;;;;;;;;;5.90;76.20;;;;;;4950966;28;119629;-89
2020/12/03 09:58:25;;;;;;;;;;;5.90;76.20;;;;;;4951026;28;119279;-89
2020/12/03 10:00:51;;;;;;;;;;;5.90;76.10;;;;;;4951698;28;117440;-89
2020/12/03 10:03:35;;;;;;;;;;;5.90;76.10;;;;;;4952350;28;117482;-90
2020/12/03 10:06:16;;;;;;;;;;;5.90;76.20;;;;;;4966920;28;120250;-90
2020/12/03 10:08:44;;;;;;;;;;;5.90;76.70;;;;;;4967115;28;120642;-90
2020/12/03 10:11:21;;;;;;;;;;;5.90;76.10;;;;;;4951880;28;117429;-90
2020/12/03 10:14:03;;;;;;;;;;;5.90;76.10;;;;;;4951530;28;117382;-90
2020/12/03 10:16:29;;;;;;;;;;;5.90;76.10;;;;;;4966137;28;119935;-90
2020/12/03 10:18:55;;;;;;;;;;;5.90;76.10;;;;;;4950683;28;119302;-89
2020/12/03 10:21:22;;;;;;;;;;;5.90;76.10;;;;;;4951625;28;117485;-90
2020/12/03 10:23:57;;;;;;;;;;;5.90;76.00;;;;;;4952046;28;117385;-89
2020/12/03 10:26:32;;;;;;;;;;;5.90;76.10;;;;;;4966540;28;121185;-90
2020/12/03 10:29:07;;;;;;;;;;;5.90;76.10;;;;;;4950640;28;119007;-89
2020/12/03 10:31:32;;;;;;;;;;;5.90;76.10;;;;;;4951696;28;117345;-89
2020/12/03 10:33:58;;;;;;;;;;;5.90;76.10;;;;;;4951879;28;117287;-89
2020/12/03 10:36:30;;;;;;;;;;;5.90;76.10;;;;;;4950435;28;121310;-89
2020/12/03 10:38:56;;;;;;;;;;;5.90;76.10;;;;;;4950137;28;120527;-89
2020/12/03 10:41:22;;;;;;;;;;;5.90;76.10;;;;;;4951579;28;117313;-89
2020/12/03 10:43:48;;;;;;;;;;;5.90;76.10;;;;;;4952047;28;117349;-89
2020/12/03 10:46:20;;;;;;;;;;;5.90;76.00;;;;;;4950868;28;119714;-90
2020/12/03 10:48:48;;;;;;;;;;;5.90;76.00;;;;;;4951968;28;117329;-89
2020/12/03 10:51:13;;;;;;;;;;;5.90;76.10;;;;;;4951947;28;117568;-90
2020/12/03 10:53:39;;;;;;;;;;;5.90;76.10;;;;;;4952446;28;117734;-90
2020/12/03 10:56:08;;;;;;;;;;;5.90;76.10;;;;;;4951143;28;120201;-89
2020/12/03 10:58:56;;;;;;;;;;;5.90;76.00;;;;;;4951168;28;119329;-89
2020/12/03 11:01:28;;;;;;;;;;;5.90;76.00;;;;;;4954455;28;117418;-89
2020/12/03 11:03:54;;;;;;;;;;;5.90;76.00;;;;;;4956906;28;117529;-89
2020/12/03 11:06:24;;;;;;;;;;;5.90;76.00;;;;;;4951280;28;121208;-89
2020/12/03 11:08:49;;;;;;;;;;;5.90;76.10;;;;;;4951567;28;119285;-90
2020/12/03 11:11:15;;;;;;;;;;;5.90;76.00;;;;;;4951723;28;117687;-89
2020/12/03 11:13:51;;;;;;;;;;;5.90;76.10;;;;;;4954749;28;117297;-89
2020/12/03 11:16:21;;;;;;;;;;;5.90;76.00;;;;;;4969589;28;120140;-90
2020/12/03 11:18:48;;;;;;;;;;;5.90;76.00;;;;;;4950571;28;120497;-89
2020/12/03 11:21:14;;;;;;;;;;;5.90;76.10;;;;;;4951574;28;117739;-90
2020/12/03 11:23:48;;;;;;;;;;;5.90;76.00;;;;;;4951730;28;117397;-89
2020/12/03 11:26:13;;;;;;;;;;;5.90;76.00;;;;;;4949791;28;121452;-89
2020/12/03 11:28:39;;;;;;;;;;;5.90;76.00;;;;;;4952749;28;120580;-90
2020/12/03 11:31:08;;;;;;;;;;;5.90;76.00;;;;;;4954435;28;117572;-89
2020/12/03 11:33:35;;;;;;;;;;;5.90;76.10;;;;;;4954969;28;117440;-90
2020/12/03 11:36:08;;;;;;;;;;;5.90;76.00;;;;;;4953266;28;121344;-90
2020/12/03 11:38:33;;;;;;;;;;;6.00;76.10;;;;;;4953426;28;120563;-90
2020/12/03 11:41:02;;;;;;;;;;;5.90;76.00;;;;;;4954199;28;117813;-90
2020/12/03 11:48:57;;;;;;;;;;;5.90;75.90;;;;;;4971736;28;117239;-89
2020/12/03 11:51:28;;;;;;;;;;;5.90;76.00;;;;;;4954312;28;117685;-89
2020/12/03 11:53:55;;;;;;;;;;;5.90;75.90;;;;;;4969888;28;117849;-89
2020/12/03 11:56:20;;;;;;;;;;;5.90;76.00;;;;;;4952871;28;120714;-90
2020/12/03 11:58:46;;;;;;;;;;;5.90;76.00;;;;;;4953021;28;119442;-90
2020/12/03 12:01:12;;;;;;;;;;;5.90;76.00;;;;;;4953744;28;117471;-89
2020/12/03 12:03:39;;;;;;;;;;;5.90;76.00;;;;;;4953899;28;117874;-89
2020/12/03 12:06:12;;;;;;;;;;;5.90;76.00;;;;;;4952674;28;121827;-90
2020/12/03 12:08:44;;;;;;;;;;;5.90;76.00;;;;;;4953852;28;120312;-89
2020/12/03 12:13:36;;;;;;;;;;;5.90;76.00;;;;;;4970425;28;117421;-89
2020/12/03 12:16:01;;;;;;;;;;;5.90;75.90;;;;;;4952448;28;120276;-89
2020/12/03 12:18:27;;;;;;;;;;;5.90;76.00;;;;;;4951732;28;120566;-90
2020/12/03 12:20:52;;;;;;;;;;;5.90;76.00;;;;;;4953293;28;117528;-89
2020/12/03 12:23:18;;;;;;;;;;;5.90;76.00;;;;;;4953700;28;117884;-89
2020/12/03 12:25:43;;;;;;;;;;;5.90;75.90;;;;;;4952442;28;120175;-90
2020/12/03 12:28:09;;;;;;;;;;;5.90;75.90;;;;;;4952312;28;120498;-89
2020/12/03 12:30:34;;;;;;;;;;;6.00;76.00;;;;;;4952946;28;117354;-89
2020/12/03 12:33:00;;;;;;;;;;;5.90;76.00;;;;;;4953555;28;117380;-89
2020/12/03 12:35:26;;;;;;;;;;;6.00;76.00;;;;;;4952480;28;121235;-90
2020/12/03 12:37:51;;;;;;;;;;;5.90;75.90;;;;;;4952081;28;119225;-90
2020/12/03 12:40:17;;;;;;;;;;;5.90;75.90;;;;;;4952537;28;117516;-89
2020/12/03 12:42:42;;;;;;;;;;;5.90;75.90;;;;;;4953027;28;117865;-90
2020/12/03 12:45:08;;;;;;;;;;;5.90;75.90;;;;;;4951954;28;121200;-89
2020/12/03 12:47:33;;;;;;;;;;;5.90;75.90;;;;;;4952083;28;120476;-89
2020/12/03 12:49:59;;;;;;;;;;;6.00;76.00;;;;;;4953044;28;117873;-89
2020/12/03 12:52:25;;;;;;;;;;;6.00;75.90;;;;;;4953283;28;117881;-90
2020/12/03 12:54:50;;;;;;;;;;;6.00;75.90;;;;;;4951916;28;120030;-89
2020/12/03 12:57:16;;;;;;;;;;;5.90;75.90;;;;;;4952005;28;120280;-89
2020/12/03 12:59:41;;;;;;;;;;;5.90;75.90;;;;;;4952840;28;117687;-89
2020/12/03 13:02:07;;;;;;;;;;;6.00;75.90;;;;;;4952970;28;117856;-89
2020/12/03 13:04:33;;;;;;;;;;;5.90;75.90;;;;;;4951898;28;120273;-89
2020/12/03 13:07:00;;;;;;;;;;;5.90;75.90;;;;;;4951163;28;119384;-89
2020/12/03 13:09:26;;;;;;;;;;;6.00;75.90;;;;;;4952933;28;117303;-89
2020/12/03 13:11:51;;;;;;;;;;;6.00;75.90;;;;;;4953238;28;117912;-89
2020/12/03 13:14:17;;;;;;;;;;;6.00;75.90;;;;;;4952322;28;120964;-89
2020/12/03 13:16:43;;;;;;;;;;;5.90;75.90;;;;;;4952153;28;120459;-89
2020/12/03 13:19:08;;;;;;;;;;;6.00;75.90;;;;;;4952971;28;117540;-89
2020/12/03 13:21:34;;;;;;;;;;;5.90;75.80;;;;;;4953663;28;117856;-89
2020/12/03 13:24:00;;;;;;;;;;;5.90;75.80;;;;;;4952658;28;120939;-89
2020/12/03 13:26:25;;;;;;;;;;;5.90;75.80;;;;;;4952399;28;120181;-89
2020/12/03 13:28:51;;;;;;;;;;;6.00;75.90;;;;;;4953380;28;117533;-89
2020/12/03 13:31:16;;;;;;;;;;;6.00;75.90;;;;;;4952921;28;117929;-89
2020/12/03 13:33:42;;;;;;;;;;;5.90;75.80;;;;;;4952231;28;121082;-89
2020/12/03 13:36:08;;;;;;;;;;;5.90;75.80;;;;;;4952410;28;119252;-89
2020/12/03 13:38:33;;;;;;;;;;;6.00;75.80;;;;;;4953121;28;117360;-89
2020/12/03 13:40:59;;;;;;;;;;;6.00;75.90;;;;;;4953118;28;117344;-89
2020/12/03 13:43:24;;;;;;;;;;;5.90;75.70;;;;;;4951904;28;120110;-89
2020/12/03 13:45:52;;;;;;;;;;;5.90;75.80;;;;;;4951627;28;120999;-89
2020/12/03 13:48:17;;;;;;;;;;;5.90;75.70;;;;;;4953096;28;117488;-89
2020/12/03 13:50:43;;;;;;;;;;;5.90;75.80;;;;;;4951533;28;117417;-89
2020/12/03 13:53:08;;;;;;;;;;;6.00;75.80;;;;;;4951551;28;120068;-89
2020/12/03 13:55:34;;;;;;;;;;;6.00;75.80;;;;;;4950517;28;118896;-89
2020/12/03 13:58:00;;;;;;;;;;;5.90;75.70;;;;;;4951920;28;117579;-89
2020/12/03 14:00:26;;;;;;;;;;;5.90;75.70;;;;;;4952682;28;117454;-89
2020/12/03 14:02:51;;;;;;;;;;;5.90;75.60;;;;;;4950868;28;120895;-89
2020/12/03 14:05:17;;;;;;;;;;;6.00;75.80;;;;;;4950672;28;119210;-89
2020/12/03 14:07:43;;;;;;;;;;;5.90;75.60;;;;;;4951681;28;117468;-89
2020/12/03 14:10:08;;;;;;;;;;;6.00;75.70;;;;;;4952148;28;117424;-89
2020/12/03 14:12:34;;;;;;;;;;;6.00;75.70;;;;;;4950802;28;121616;-89
2020/12/03 14:14:59;;;;;;;;;;;6.00;75.70;;;;;;4950514;28;118894;-89
2020/12/03 14:17:25;;;;;;;;;;;6.00;75.70;;;;;;4951634;28;117488;-89
2020/12/03 14:19:50;;;;;;;;;;;6.00;75.70;;;;;;4951340;28;117278;-89
2020/12/03 14:22:16;;;;;;;;;;;6.00;75.60;;;;;;4950762;28;121374;-89
2020/12/03 14:24:42;;;;;;;;;;;6.00;75.70;;;;;;4950470;28;120166;-89
2020/12/03 14:27:07;;;;;;;;;;;6.00;75.70;;;;;;4951522;28;117460;-89
2020/12/03 14:29:33;;;;;;;;;;;6.00;75.60;;;;;;4951974;28;117676;-89
2020/12/03 14:31:58;;;;;;;;;;;6.00;75.60;;;;;;4950541;28;119938;-89
2020/12/03 14:34:24;;;;;;;;;;;6.00;75.60;;;;;;4950622;28;119395;-89
2020/12/03 14:36:49;;;;;;;;;;;5.90;75.60;;;;;;4951188;28;118371;-89
2020/12/03 14:39:15;;;;;;;;;;;6.00;75.60;;;;;;4951603;28;117810;-89
2020/12/03 14:41:40;;;;;;;;;;;6.00;75.60;;;;;;4950468;28;121027;-88
2020/12/03 14:44:06;;;;;;;;;;;6.00;75.60;;;;;;4949840;28;119253;-89
2020/12/03 14:46:31;;;;;;;;;;;6.00;75.60;;;;;;4950791;28;117597;-89
2020/12/03 14:48:57;;;;;;;;;;;6.00;75.50;;;;;;4951518;28;117805;-89
2020/12/03 14:51:22;;;;;;;;;;;6.00;75.50;;;;;;4950224;28;119791;-89
2020/12/03 14:53:48;;;;;;;;;;;6.00;75.60;;;;;;4950264;28;120288;-89
2020/12/03 14:56:14;;;;;;;;;;;6.00;75.50;;;;;;4950873;28;117436;-89
2020/12/03 14:58:39;;;;;;;;;;;6.00;75.60;;;;;;4951321;28;117487;-89
2020/12/03 15:01:07;;;;;;;;;;;6.00;75.50;;;;;;4950388;28;120095;-88
2020/12/03 15:03:33;;;;;;;;;;;6.00;75.60;;;;;;4953153;28;119429;-89
2020/12/03 15:05:58;;;;;;;;;;;6.00;75.50;;;;;;4954127;28;117722;-89
2020/12/03 15:08:24;;;;;;;;;;;6.00;75.50;;;;;;4954121;28;118010;-88
2020/12/03 15:10:54;;;;;;;;;;;6.00;75.50;;;;;;4953638;28;119595;-89
2020/12/03 15:13:20;;;;;;;;;;;6.00;75.50;;;;;;4954184;28;120422;-89
2020/12/03 15:15:47;;;;;;;;;;;6.00;75.50;;;;;;4954454;28;117346;-88